createdAt,value
2019-05-21T00:00:01.171Z,46.40
2019-05-21T00:01:01.130Z,48.20
2019-05-21T00:02:01.062Z,49.90
2019-05-21T00:03:01.021Z,51.40
2019-05-21T00:04:00.983Z,52.40
2019-05-21T00:05:00.942Z,44.50
2019-05-21T00:06:00.934Z,46.80
2019-05-21T00:07:00.862Z,46.30
2019-05-21T00:08:00.822Z,50.60
2019-05-21T00:09:00.782Z,49.60
2019-05-21T00:10:00.735Z,44.70
2019-05-21T00:11:00.695Z,47.20
2019-05-21T00:12:00.678Z,47.80
2019-05-21T00:13:00.649Z,47.80
2019-05-21T00:14:00.583Z,48.00
2019-05-21T00:15:00.543Z,45.80
2019-05-21T00:16:00.503Z,41.70
2019-05-21T00:17:00.523Z,41.00
2019-05-21T00:18:00.417Z,39.30
2019-05-21T00:19:00.381Z,41.00
2019-05-21T00:20:00.336Z,41.50
2019-05-21T00:21:00.292Z,41.80
2019-05-21T00:22:00.252Z,42.30
2019-05-21T00:23:00.238Z,47.70
2019-05-21T00:24:00.172Z,50.60
2019-05-21T00:25:00.137Z,46.90
2019-05-21T00:26:00.123Z,48.80
2019-05-21T00:27:00.055Z,46.90
2019-05-21T00:28:00.026Z,49.50
2019-05-21T00:28:59.969Z,47.50
2019-05-21T00:29:59.928Z,50.50
2019-05-21T00:30:59.896Z,46.40
2019-05-21T00:31:59.882Z,48.40
2019-05-21T00:32:59.812Z,47.90
2019-05-21T00:33:59.765Z,53.70
2019-05-21T00:34:59.726Z,52.40
2019-05-21T00:35:59.684Z,53.90
2019-05-21T00:36:59.717Z,55.80
2019-05-21T00:37:59.614Z,58.20
2019-05-21T00:38:59.590Z,61.20
2019-05-21T00:39:59.539Z,65.20
2019-05-21T00:40:59.492Z,64.40
2019-05-21T00:41:59.471Z,66.40
2019-05-21T00:42:59.401Z,63.70
2019-05-21T00:43:59.359Z,69.30
2019-05-21T00:44:59.327Z,73.50
2019-05-21T00:45:59.284Z,74.30
2019-05-21T00:46:59.240Z,70.60
2019-05-21T00:47:59.224Z,64.50
2019-05-21T00:48:59.162Z,68.60
2019-05-21T00:49:59.123Z,65.20
2019-05-21T00:50:59.079Z,68.50
2019-05-21T00:52:06.847Z,67.00
2019-05-21T00:52:59.017Z,66.10
2019-05-21T00:53:58.968Z,64.50
2019-05-21T00:54:58.915Z,62.80
2019-05-21T00:55:58.876Z,64.80
2019-05-21T00:56:58.841Z,69.40
2019-05-21T00:57:58.823Z,69.20
2019-05-21T00:58:58.760Z,69.20
2019-05-21T00:59:58.745Z,71.30
2019-05-21T01:00:58.668Z,75.40
2019-05-21T01:01:58.629Z,73.80
2019-05-21T01:02:58.599Z,74.80
2019-05-21T01:03:58.555Z,72.80
2019-05-21T01:05:00.995Z,75.50
2019-05-21T01:05:58.495Z,84.90
2019-05-21T01:06:58.456Z,86.20
2019-05-21T01:07:58.383Z,84.90
2019-05-21T01:08:58.413Z,78.10
2019-05-21T01:09:58.311Z,76.10
2019-05-21T01:10:58.267Z,81.50
2019-05-21T01:11:58.230Z,79.30
2019-05-21T01:12:58.291Z,78.10
2019-05-21T01:13:58.136Z,78.30
2019-05-21T01:14:58.100Z,80.90
2019-05-21T01:15:58.061Z,83.10
2019-05-21T01:16:58.023Z,74.60
2019-05-21T01:17:57.983Z,74.70
2019-05-21T01:18:57.964Z,79.70
2019-05-21T01:19:57.897Z,78.40
2019-05-21T01:20:57.857Z,77.20
2019-05-21T01:21:57.823Z,80.00
2019-05-21T01:22:57.782Z,78.60
2019-05-21T01:23:57.762Z,86.10
2019-05-21T01:24:57.691Z,86.90
2019-05-21T01:25:57.682Z,83.00
2019-05-21T01:26:57.613Z,83.00
2019-05-21T01:27:57.572Z,86.10
2019-05-21T01:28:57.537Z,80.30
2019-05-21T01:29:57.494Z,83.80
2019-05-21T01:30:57.505Z,82.70
2019-05-21T01:31:57.414Z,89.80
2019-05-21T01:32:57.377Z,86.80
2019-05-21T01:33:57.325Z,94.10
2019-05-21T01:34:57.296Z,88.60
2019-05-21T01:35:57.252Z,87.30
2019-05-21T01:36:57.228Z,87.20
2019-05-21T01:37:57.160Z,90.90
2019-05-21T01:38:57.124Z,92.70
2019-05-21T01:39:57.123Z,98.80
2019-05-21T01:40:57.048Z,93.60
2019-05-21T01:41:57.007Z,98.40
2019-05-21T01:42:56.964Z,93.10
2019-05-21T01:43:56.930Z,99.00
2019-05-21T01:44:56.877Z,102.80
2019-05-21T01:45:56.854Z,106.90
2019-05-21T01:46:56.823Z,101.40
2019-05-21T01:47:56.752Z,94.40
2019-05-21T01:48:56.716Z,91.70
2019-05-21T01:49:56.675Z,95.20
2019-05-21T01:50:56.632Z,90.30
2019-05-21T01:51:56.646Z,84.90
2019-05-21T01:52:56.602Z,79.90
2019-05-21T01:53:56.518Z,81.50
2019-05-21T01:54:56.477Z,93.10
2019-05-21T01:55:56.437Z,83.30
2019-05-21T01:56:56.381Z,80.70
2019-05-21T01:57:56.369Z,80.50
2019-05-21T01:58:56.306Z,78.80
2019-05-21T01:59:56.266Z,83.10
2019-05-21T02:00:56.230Z,89.80
2019-05-21T02:01:56.187Z,89.80
2019-05-21T02:02:56.170Z,91.40
2019-05-21T02:03:56.105Z,90.50
2019-05-21T02:04:56.061Z,88.90
2019-05-21T02:05:56.020Z,95.30
2019-05-21T02:06:55.981Z,94.50
2019-05-21T02:07:55.969Z,95.30
2019-05-21T02:08:55.902Z,106.90
2019-05-21T02:09:55.853Z,105.40
2019-05-21T02:10:55.820Z,100.20
2019-05-21T02:11:55.779Z,102.00
2019-05-21T02:12:55.760Z,96.30
2019-05-21T02:13:55.705Z,93.20
2019-05-21T02:14:55.682Z,100.20
2019-05-21T02:15:55.632Z,105.60
2019-05-21T02:16:55.566Z,106.90
2019-05-21T02:17:55.528Z,104.80
2019-05-21T02:18:55.484Z,114.20
2019-05-21T02:19:55.477Z,100.80
2019-05-21T02:20:55.413Z,103.60
2019-05-21T02:21:55.371Z,102.90
2019-05-21T02:22:55.329Z,107.00
2019-05-21T02:23:55.283Z,97.40
2019-05-21T02:24:55.246Z,103.10
2019-05-21T02:25:55.227Z,96.40
2019-05-21T02:26:55.163Z,100.20
2019-05-21T02:27:55.127Z,101.30
2019-05-21T02:28:55.084Z,99.50
2019-05-21T02:29:55.035Z,103.20
2019-05-21T02:30:56.633Z,93.20
2019-05-21T02:31:54.959Z,100.10
2019-05-21T02:32:54.919Z,90.00
2019-05-21T02:33:54.879Z,98.60
2019-05-21T02:34:54.858Z,102.00
2019-05-21T02:35:55.197Z,97.90
2019-05-21T02:36:54.798Z,99.50
2019-05-21T02:37:54.723Z,95.10
2019-05-21T02:38:54.674Z,96.90
2019-05-21T02:39:54.631Z,102.50
2019-05-21T02:40:54.593Z,93.20
2019-05-21T02:41:54.570Z,89.30
2019-05-21T02:42:54.507Z,98.40
2019-05-21T02:43:54.467Z,98.50
2019-05-21T02:44:54.828Z,92.70
2019-05-21T02:45:54.393Z,94.60
2019-05-21T02:46:54.377Z,97.40
2019-05-21T02:47:54.306Z,92.20
2019-05-21T02:48:54.260Z,97.50
2019-05-21T02:49:54.218Z,109.70
2019-05-21T02:50:54.214Z,113.50
2019-05-21T02:51:54.165Z,104.30
2019-05-21T02:52:54.103Z,108.10
2019-05-21T02:53:54.069Z,103.70
2019-05-21T02:54:54.011Z,112.50
2019-05-21T02:55:53.975Z,111.20
2019-05-21T02:56:53.957Z,107.20
2019-05-21T02:57:53.921Z,105.70
2019-05-21T02:58:53.883Z,111.80
2019-05-21T02:59:53.817Z,105.10
2019-05-21T03:00:53.771Z,111.50
2019-05-21T03:01:53.726Z,113.60
2019-05-21T03:02:53.690Z,116.00
2019-05-21T03:03:53.682Z,112.90
2019-05-21T03:04:53.610Z,103.80
2019-05-21T03:06:10.521Z,98.60
2019-05-21T03:06:53.532Z,103.30
2019-05-21T03:07:53.501Z,107.10
2019-05-21T03:08:53.446Z,116.10
2019-05-21T03:09:53.429Z,111.00
2019-05-21T03:10:53.368Z,117.50
2019-05-21T03:11:53.330Z,120.50
2019-05-21T03:12:53.282Z,110.50
2019-05-21T03:13:53.238Z,114.60
2019-05-21T03:14:53.200Z,121.20
2019-05-21T03:15:53.175Z,122.40
2019-05-21T03:16:53.117Z,123.70
2019-05-21T03:17:53.114Z,147.00
2019-05-21T03:18:53.040Z,136.80
2019-05-21T03:19:53.020Z,148.20
2019-05-21T03:20:52.963Z,158.10
2019-05-21T03:21:52.931Z,142.20
2019-05-21T03:22:52.873Z,137.20
2019-05-21T03:23:52.834Z,135.90
2019-05-21T03:24:52.793Z,144.10
2019-05-21T03:25:52.751Z,158.70
2019-05-21T03:26:52.726Z,137.70
2019-05-21T03:27:52.662Z,158.40
2019-05-21T03:28:52.631Z,135.70
2019-05-21T03:29:52.584Z,144.20
2019-05-21T03:30:52.541Z,146.80
2019-05-21T03:31:52.506Z,137.20
2019-05-21T03:32:52.481Z,129.90
2019-05-21T03:33:52.558Z,122.10
2019-05-21T03:34:52.438Z,131.20
2019-05-21T03:35:52.333Z,140.20
2019-05-21T03:36:52.318Z,117.90
2019-05-21T03:37:52.305Z,140.20
2019-05-21T03:38:52.216Z,159.60
2019-05-21T03:39:52.175Z,121.70
2019-05-21T03:40:52.133Z,138.00
2019-05-21T03:41:52.089Z,130.80
2019-05-21T03:42:52.050Z,134.50
2019-05-21T03:43:52.042Z,121.80
2019-05-21T03:44:59.704Z,124.40
2019-05-21T03:45:51.924Z,116.20
2019-05-21T03:46:51.879Z,110.80
2019-05-21T03:47:51.841Z,111.00
2019-05-21T03:48:51.828Z,107.30
2019-05-21T03:49:51.799Z,98.70
2019-05-21T03:50:51.727Z,101.80
2019-05-21T03:51:51.694Z,118.40
2019-05-21T03:52:51.636Z,124.30
2019-05-21T03:53:51.614Z,152.10
2019-05-21T03:54:51.576Z,157.80
2019-05-21T03:55:51.519Z,141.30
2019-05-21T03:56:51.476Z,139.80
2019-05-21T03:57:51.443Z,132.20
2019-05-21T03:58:51.397Z,133.60
2019-05-21T03:59:51.347Z,141.70
2019-05-21T04:00:51.338Z,141.90
2019-05-21T04:01:51.285Z,129.20
2019-05-21T04:02:51.230Z,120.20
2019-05-21T04:03:51.225Z,139.60
2019-05-21T04:04:51.237Z,121.90
2019-05-21T04:05:51.105Z,119.90
2019-05-21T04:06:52.542Z,158.00
2019-05-21T04:07:51.019Z,143.60
2019-05-21T04:08:50.989Z,137.00
2019-05-21T04:09:50.972Z,150.70
2019-05-21T04:10:50.909Z,174.10
2019-05-21T04:11:53.304Z,188.50
2019-05-21T04:12:50.812Z,157.20
2019-05-21T04:13:50.775Z,199.90
2019-05-21T04:14:50.770Z,185.70
2019-05-21T04:15:50.717Z,204.00
2019-05-21T04:16:50.653Z,170.90
2019-05-21T04:17:50.663Z,194.10
2019-05-21T04:18:50.572Z,200.20
2019-05-21T04:19:50.556Z,209.00
2019-05-21T04:20:50.506Z,222.60
2019-05-21T04:21:50.466Z,246.10
2019-05-21T04:22:50.413Z,248.10
2019-05-21T04:23:50.374Z,246.20
2019-05-21T04:24:50.325Z,251.70
2019-05-21T04:25:50.325Z,231.30
2019-05-21T04:26:50.244Z,286.80
2019-05-21T04:27:50.202Z,274.60
2019-05-21T04:28:50.170Z,291.60
2019-05-21T04:29:50.120Z,309.60
2019-05-21T04:30:50.119Z,296.50
2019-05-21T04:31:50.117Z,317.60
2019-05-21T04:32:50.012Z,294.30
2019-05-21T04:33:49.971Z,329.20
2019-05-21T04:34:49.921Z,299.60
2019-05-21T04:35:49.890Z,291.70
2019-05-21T04:36:49.864Z,283.40
2019-05-21T04:37:49.795Z,324.20
2019-05-21T04:38:49.756Z,355.10
2019-05-21T04:39:49.711Z,310.10
2019-05-21T04:40:49.677Z,306.30
2019-05-21T04:41:49.634Z,310.40
2019-05-21T04:42:49.621Z,315.50
2019-05-21T04:43:49.559Z,326.20
2019-05-21T04:44:49.519Z,306.90
2019-05-21T04:45:49.464Z,308.70
2019-05-21T04:46:49.434Z,334.10
2019-05-21T04:47:49.390Z,326.80
2019-05-21T04:48:49.372Z,352.10
2019-05-21T04:49:49.300Z,348.10
2019-05-21T04:50:49.293Z,341.20
2019-05-21T04:51:49.252Z,384.00
2019-05-21T04:52:49.188Z,359.30
2019-05-21T04:53:49.180Z,332.50
2019-05-21T04:54:49.105Z,377.00
2019-05-21T04:55:49.072Z,317.20
2019-05-21T04:56:49.019Z,317.70
2019-05-21T04:57:48.978Z,316.20
2019-05-21T04:58:48.942Z,312.90
2019-05-21T04:59:49.047Z,317.40
2019-05-21T05:00:48.865Z,353.20
2019-05-21T05:01:48.814Z,302.30
2019-05-21T05:02:48.768Z,307.60
2019-05-21T05:03:48.739Z,317.80
2019-05-21T05:04:48.702Z,292.00
2019-05-21T05:05:48.676Z,299.70
2019-05-21T05:06:48.617Z,296.10
2019-05-21T05:07:48.570Z,280.40
2019-05-21T05:08:48.525Z,301.90
2019-05-21T05:09:48.483Z,274.40
2019-05-21T05:10:49.373Z,286.90
2019-05-21T05:11:48.407Z,270.70
2019-05-21T05:12:48.398Z,281.10
2019-05-21T05:13:48.328Z,267.40
2019-05-21T05:14:48.288Z,278.30
2019-05-21T05:15:48.250Z,290.00
2019-05-21T05:16:48.198Z,253.60
2019-05-21T05:17:48.156Z,244.10
2019-05-21T05:18:48.151Z,266.70
2019-05-21T05:19:48.080Z,257.60
2019-05-21T05:20:48.033Z,245.90
2019-05-21T05:21:47.994Z,263.10
2019-05-21T05:22:47.979Z,267.50
2019-05-21T05:23:47.925Z,280.70
2019-05-21T05:24:47.879Z,237.70
2019-05-21T05:25:47.834Z,244.90
2019-05-21T05:26:47.797Z,221.00
2019-05-21T05:27:47.758Z,229.50
2019-05-21T05:28:47.733Z,220.80
2019-05-21T05:29:47.668Z,209.80
2019-05-21T05:30:47.626Z,241.50
2019-05-21T05:31:47.586Z,228.50
2019-05-21T05:32:47.555Z,225.80
2019-05-21T05:33:47.530Z,229.40
2019-05-21T05:34:47.485Z,231.40
2019-05-21T05:35:47.422Z,222.90
2019-05-21T05:36:47.390Z,234.10
2019-05-21T05:37:48.950Z,221.50
2019-05-21T05:38:47.305Z,252.00
2019-05-21T05:39:47.288Z,218.30
2019-05-21T05:40:47.241Z,211.40
2019-05-21T05:41:47.179Z,231.80
2019-05-21T05:42:47.138Z,214.30
2019-05-21T05:43:47.092Z,214.80
2019-05-21T05:44:47.128Z,213.00
2019-05-21T05:45:47.051Z,215.40
2019-05-21T05:46:46.980Z,211.60
2019-05-21T05:47:46.937Z,207.10
2019-05-21T05:48:46.961Z,210.90
2019-05-21T05:49:46.852Z,218.60
2019-05-21T05:50:46.839Z,214.10
2019-05-21T05:51:46.782Z,217.00
2019-05-21T05:52:46.734Z,200.60
2019-05-21T05:53:46.684Z,189.90
2019-05-21T05:54:46.646Z,205.70
2019-05-21T05:55:46.632Z,199.60
2019-05-21T05:56:46.570Z,212.70
2019-05-21T05:57:46.560Z,182.20
2019-05-21T05:58:46.491Z,190.90
2019-05-21T05:59:46.450Z,203.60
2019-05-21T06:00:46.400Z,195.70
2019-05-21T06:01:46.369Z,197.40
2019-05-21T06:02:46.317Z,185.80
2019-05-21T06:03:46.302Z,157.80
2019-05-21T06:04:46.251Z,149.80
2019-05-21T06:05:46.224Z,152.20
2019-05-21T06:06:46.155Z,147.60
2019-05-21T06:07:58.763Z,133.00
2019-05-21T06:08:46.135Z,144.20
2019-05-21T06:09:46.051Z,146.90
2019-05-21T06:10:46.001Z,131.30
2019-05-21T06:11:45.961Z,136.50
2019-05-21T06:12:45.915Z,145.90
2019-05-21T06:13:45.892Z,146.60
2019-05-21T06:14:45.867Z,130.30
2019-05-21T06:15:45.792Z,113.30
2019-05-21T06:16:45.932Z,127.80
2019-05-21T06:17:45.716Z,136.60
2019-05-21T06:18:45.749Z,136.90
2019-05-21T06:19:45.668Z,134.70
2019-05-21T06:20:45.587Z,123.70
2019-05-21T06:21:45.549Z,130.50
2019-05-21T06:22:45.522Z,132.10
2019-05-21T06:23:45.474Z,119.70
2019-05-21T06:24:45.426Z,121.10
2019-05-21T06:25:45.415Z,118.60
2019-05-21T06:26:45.352Z,122.00
2019-05-21T06:27:45.302Z,129.40
2019-05-21T06:28:45.291Z,130.00
2019-05-21T06:29:45.253Z,130.90
2019-05-21T06:30:45.189Z,132.90
2019-05-21T06:31:45.156Z,132.40
2019-05-21T06:32:45.101Z,122.80
2019-05-21T06:33:45.058Z,108.20
2019-05-21T06:34:48.185Z,109.70
2019-05-21T06:35:44.977Z,104.20
2019-05-21T06:36:44.942Z,100.90
2019-05-21T06:37:44.905Z,103.10
2019-05-21T06:38:44.904Z,111.60
2019-05-21T06:39:44.846Z,109.20
2019-05-21T06:40:44.786Z,109.50
2019-05-21T06:41:44.738Z,114.60
2019-05-21T06:42:44.700Z,101.80
2019-05-21T06:43:44.670Z,112.60
2019-05-21T06:44:44.617Z,103.30
2019-05-21T06:45:44.596Z,105.40
2019-05-21T06:46:44.528Z,111.90
2019-05-21T06:47:44.491Z,116.10
2019-05-21T06:48:44.452Z,98.70
2019-05-21T06:49:44.447Z,116.30
2019-05-21T06:50:44.384Z,110.60
2019-05-21T06:51:44.336Z,127.60
2019-05-21T06:52:44.293Z,125.90
2019-05-21T06:53:44.246Z,119.20
2019-05-21T06:54:44.215Z,114.40
2019-05-21T06:55:44.197Z,118.90
2019-05-21T06:56:44.125Z,111.10
2019-05-21T06:57:44.206Z,102.10
2019-05-21T06:58:44.078Z,117.40
2019-05-21T06:59:44.031Z,115.90
2019-05-21T07:00:44.027Z,112.40
2019-05-21T07:01:43.933Z,111.30
2019-05-21T07:02:43.888Z,118.40
2019-05-21T07:03:43.850Z,104.10
2019-05-21T07:04:43.802Z,116.70
2019-05-21T07:05:57.721Z,127.20
2019-05-21T07:06:44.850Z,131.30
2019-05-21T07:07:43.678Z,132.80
2019-05-21T07:08:43.644Z,142.60
2019-05-21T07:09:43.605Z,144.60
2019-05-21T07:10:43.558Z,136.10
2019-05-21T07:11:43.524Z,148.00
2019-05-21T07:12:43.516Z,148.20
2019-05-21T07:13:43.442Z,146.80
2019-05-21T07:14:43.403Z,146.50
2019-05-21T07:15:43.363Z,152.00
2019-05-21T07:16:43.318Z,157.80
2019-05-21T07:17:43.302Z,145.40
2019-05-21T07:18:43.258Z,149.80
2019-05-21T07:19:43.192Z,141.90
2019-05-21T07:20:43.160Z,124.20
2019-05-21T07:21:43.123Z,142.90
2019-05-21T07:22:43.130Z,147.00
2019-05-21T07:23:43.039Z,139.30
2019-05-21T07:24:43.010Z,152.20
2019-05-21T07:25:42.950Z,135.60
2019-05-21T07:26:42.934Z,139.10
2019-05-21T07:27:42.899Z,151.80
2019-05-21T07:28:42.835Z,145.10
2019-05-21T07:29:42.816Z,148.70
2019-05-21T07:30:42.748Z,145.70
2019-05-21T07:31:42.706Z,141.60
2019-05-21T07:32:42.703Z,150.70
2019-05-21T07:33:42.688Z,143.50
2019-05-21T07:34:42.592Z,140.00
2019-05-21T07:35:42.628Z,135.60
2019-05-21T07:36:42.513Z,139.10
2019-05-21T07:37:42.471Z,143.10
2019-05-21T07:38:52.775Z,138.70
2019-05-21T07:39:42.386Z,147.60
2019-05-21T07:40:42.377Z,148.70
2019-05-21T07:41:42.310Z,140.00
2019-05-21T07:42:42.261Z,147.70
2019-05-21T07:43:42.229Z,148.20
2019-05-21T07:44:42.183Z,149.40
2019-05-21T07:45:42.176Z,147.10
2019-05-21T07:46:42.129Z,166.00
2019-05-21T07:47:42.065Z,143.30
2019-05-21T07:48:42.014Z,150.70
2019-05-21T07:49:41.974Z,138.80
2019-05-21T07:50:41.943Z,142.90
2019-05-21T07:51:41.914Z,143.90
2019-05-21T07:52:41.865Z,150.60
2019-05-21T07:53:41.826Z,153.40
2019-05-21T07:54:41.781Z,154.30
2019-05-21T07:55:41.739Z,156.10
2019-05-21T07:56:41.718Z,159.50
2019-05-21T07:57:41.657Z,154.20
2019-05-21T07:58:41.616Z,162.30
2019-05-21T07:59:41.575Z,153.50
2019-05-21T08:00:41.529Z,162.90
2019-05-21T08:01:41.526Z,160.40
2019-05-21T08:02:41.451Z,159.70
2019-05-21T08:03:41.406Z,155.10
2019-05-21T08:04:41.394Z,157.50
2019-05-21T08:05:41.347Z,156.90
2019-05-21T08:06:41.323Z,185.90
2019-05-21T08:07:41.316Z,160.50
2019-05-21T08:08:41.204Z,165.60
2019-05-21T08:09:41.189Z,158.10
2019-05-21T08:10:41.121Z,158.80
2019-05-21T08:11:41.081Z,166.30
2019-05-21T08:12:41.053Z,166.90
2019-05-21T08:13:41.033Z,160.70
2019-05-21T08:14:40.961Z,147.50
2019-05-21T08:15:40.915Z,157.40
2019-05-21T08:16:40.926Z,151.40
2019-05-21T08:17:40.846Z,145.10
2019-05-21T08:18:40.828Z,160.40
2019-05-21T08:19:40.764Z,145.10
2019-05-21T08:20:40.783Z,156.40
2019-05-21T08:21:40.676Z,145.40
2019-05-21T08:22:40.641Z,153.30
2019-05-21T08:23:40.621Z,136.90
2019-05-21T08:24:40.588Z,145.90
2019-05-21T08:25:40.560Z,148.50
2019-05-21T08:26:40.488Z,143.20
2019-05-21T08:27:40.438Z,149.20
2019-05-21T08:28:40.393Z,133.70
2019-05-21T08:29:40.354Z,137.60
2019-05-21T08:30:40.345Z,138.10
2019-05-21T08:31:40.275Z,135.40
2019-05-21T08:32:40.228Z,136.20
2019-05-21T08:33:40.187Z,114.10
2019-05-21T08:34:40.144Z,122.60
2019-05-21T08:35:40.136Z,122.80
2019-05-21T08:36:40.075Z,116.70
2019-05-21T08:37:40.046Z,132.60
2019-05-21T08:38:39.995Z,127.60
2019-05-21T08:39:39.950Z,122.70
2019-05-21T08:40:39.905Z,114.90
2019-05-21T08:41:39.881Z,120.60
2019-05-21T08:42:39.846Z,118.60
2019-05-21T08:43:39.783Z,114.40
2019-05-21T08:44:39.756Z,105.90
2019-05-21T08:45:39.757Z,114.10
2019-05-21T08:46:39.656Z,100.20
2019-05-21T08:47:39.626Z,94.60
2019-05-21T08:48:39.586Z,100.30
2019-05-21T08:49:39.545Z,99.90
2019-05-21T08:50:39.502Z,111.00
2019-05-21T08:51:39.486Z,111.60
2019-05-21T08:52:39.505Z,117.40
2019-05-21T08:53:39.373Z,119.70
2019-05-21T08:54:39.336Z,135.00
2019-05-21T08:55:39.290Z,136.00
2019-05-21T08:56:39.260Z,143.80
2019-05-21T08:57:39.247Z,145.20
2019-05-21T08:58:39.178Z,130.20
2019-05-21T08:59:39.133Z,129.20
2019-05-21T09:00:39.088Z,119.00
2019-05-21T09:01:39.046Z,118.90
2019-05-21T09:02:39.009Z,114.90
2019-05-21T09:03:38.999Z,120.80
2019-05-21T09:04:46.228Z,117.60
2019-05-21T09:05:38.882Z,118.20
2019-05-21T09:06:38.852Z,117.10
2019-05-21T09:07:38.846Z,121.50
2019-05-21T09:08:38.770Z,116.30
2019-05-21T09:09:50.154Z,106.00
2019-05-21T09:10:38.685Z,109.80
2019-05-21T09:11:38.669Z,115.80
2019-05-21T09:12:38.699Z,116.40
2019-05-21T09:13:38.551Z,121.20
2019-05-21T09:14:38.515Z,105.60
2019-05-21T09:15:38.528Z,107.40
2019-05-21T09:16:38.440Z,92.40
2019-05-21T09:17:38.398Z,94.70
2019-05-21T09:18:38.351Z,97.90
2019-05-21T09:19:38.310Z,87.70
2019-05-21T09:20:38.306Z,93.10
2019-05-21T09:21:38.245Z,78.20
2019-05-21T09:22:38.196Z,89.60
2019-05-21T09:23:38.165Z,83.00
2019-05-21T09:24:38.114Z,73.80
2019-05-21T09:25:38.098Z,80.40
2019-05-21T09:26:38.090Z,86.30
2019-05-21T09:27:37.994Z,84.70
2019-05-21T09:28:37.951Z,86.60
2019-05-21T09:29:37.912Z,88.20
2019-05-21T09:30:37.870Z,79.10
2019-05-21T09:31:37.859Z,87.30
2019-05-21T09:32:37.793Z,76.50
2019-05-21T09:33:37.740Z,80.70
2019-05-21T09:34:48.279Z,93.00
2019-05-21T09:35:37.684Z,101.60
2019-05-21T09:36:37.640Z,84.50
2019-05-21T09:37:37.607Z,89.00
2019-05-21T09:38:37.538Z,91.10
2019-05-21T09:39:37.521Z,94.20
2019-05-21T09:40:37.467Z,83.80
2019-05-21T09:41:37.422Z,80.20
2019-05-21T09:42:37.383Z,77.60
2019-05-21T09:43:37.344Z,74.50
2019-05-21T09:44:37.326Z,77.90
2019-05-21T09:45:37.257Z,103.60
2019-05-21T09:46:37.216Z,92.60
2019-05-21T09:47:37.196Z,78.30
2019-05-21T09:48:37.142Z,72.70
2019-05-21T09:49:37.102Z,80.90
2019-05-21T09:50:37.054Z,83.30
2019-05-21T09:51:37.188Z,83.30
2019-05-21T09:52:37.009Z,88.20
2019-05-21T09:53:36.941Z,83.30
2019-05-21T09:54:36.896Z,81.10
2019-05-21T09:55:36.863Z,81.90
2019-05-21T09:56:36.840Z,78.30
2019-05-21T09:57:36.766Z,76.50
2019-05-21T09:58:36.759Z,79.00
2019-05-21T09:59:36.709Z,83.90
2019-05-21T10:00:36.733Z,90.80
2019-05-21T10:01:47.909Z,89.20
2019-05-21T10:02:46.116Z,87.20
2019-05-21T10:03:45.736Z,85.70
2019-05-21T10:04:45.188Z,98.70
2019-05-21T10:05:44.009Z,88.90
2019-05-21T10:06:45.720Z,87.00
2019-05-21T10:07:45.783Z,88.00
2019-05-21T10:08:45.808Z,76.10
2019-05-21T10:09:45.347Z,78.80
2019-05-21T10:10:43.763Z,68.50
2019-05-21T10:11:44.938Z,61.10
2019-05-21T10:12:45.445Z,65.20
2019-05-21T10:13:46.543Z,60.90
2019-05-21T10:14:36.072Z,61.30
2019-05-21T10:15:36.080Z,63.60
2019-05-21T10:16:35.996Z,75.90
2019-05-21T10:17:35.983Z,67.40
2019-05-21T10:18:35.926Z,58.00
2019-05-21T10:19:35.875Z,60.30
2019-05-21T10:20:35.837Z,60.40
2019-05-21T10:21:35.828Z,52.30
2019-05-21T10:22:35.747Z,51.60
2019-05-21T10:23:35.708Z,53.80
2019-05-21T10:24:35.666Z,48.60
2019-05-21T10:25:35.635Z,54.70
2019-05-21T10:26:35.606Z,50.00
2019-05-21T10:27:35.574Z,50.30
2019-05-21T10:28:44.535Z,52.20
2019-05-21T10:29:44.607Z,51.70
2019-05-21T10:30:44.608Z,61.60
2019-05-21T10:31:44.649Z,57.90
2019-05-21T10:32:35.373Z,58.70
2019-05-21T10:33:35.306Z,55.90
2019-05-21T10:34:35.258Z,47.20
2019-05-21T10:35:35.218Z,56.00
2019-05-21T10:36:35.213Z,49.20
2019-05-21T10:37:35.162Z,52.70
2019-05-21T10:38:35.118Z,53.80
2019-05-21T10:39:35.056Z,52.70
2019-05-21T10:40:35.023Z,59.50
2019-05-21T10:41:34.973Z,60.80
2019-05-21T10:42:34.950Z,64.60
2019-05-21T10:43:34.898Z,60.20
2019-05-21T10:44:34.910Z,62.60
2019-05-21T10:45:34.817Z,65.60
2019-05-21T10:46:34.775Z,65.80
2019-05-21T10:47:34.727Z,66.30
2019-05-21T10:48:34.698Z,59.40
2019-05-21T10:49:34.677Z,69.70
2019-05-21T10:50:34.622Z,65.40
2019-05-21T10:51:34.582Z,60.30
2019-05-21T10:52:34.527Z,63.90
2019-05-21T10:53:34.486Z,74.90
2019-05-21T10:54:34.454Z,70.10
2019-05-21T10:55:34.439Z,73.10
2019-05-21T10:56:47.590Z,74.60
2019-05-21T10:57:34.343Z,71.00
2019-05-21T10:58:34.286Z,69.80
2019-05-21T10:59:34.245Z,77.10
2019-05-21T11:00:34.209Z,80.80
2019-05-21T11:01:34.195Z,80.70
2019-05-21T11:02:34.131Z,78.50
2019-05-21T11:03:34.095Z,76.10
2019-05-21T11:04:34.050Z,68.30
2019-05-21T11:05:34.022Z,70.70
2019-05-21T11:06:33.993Z,76.00
2019-05-21T11:07:33.924Z,78.00
2019-05-21T11:08:33.895Z,72.30
2019-05-21T11:09:33.862Z,78.00
2019-05-21T11:10:33.807Z,80.90
2019-05-21T11:11:33.760Z,80.70
2019-05-21T11:12:33.742Z,75.90
2019-05-21T11:13:33.680Z,84.20
2019-05-21T11:14:33.652Z,79.40
2019-05-21T11:15:33.621Z,87.30
2019-05-21T11:16:33.565Z,80.30
2019-05-21T11:17:48.412Z,85.50
2019-05-21T11:18:33.528Z,78.20
2019-05-21T11:19:33.439Z,82.00
2019-05-21T11:20:33.400Z,82.10
2019-05-21T11:21:33.362Z,77.10
2019-05-21T11:22:33.331Z,70.40
2019-05-21T11:23:33.321Z,68.50
2019-05-21T11:24:33.241Z,67.00
2019-05-21T11:25:33.201Z,69.20
2019-05-21T11:26:33.170Z,69.70
2019-05-21T11:27:33.127Z,68.60
2019-05-21T11:28:33.107Z,70.50
2019-05-21T11:29:33.041Z,72.00
2019-05-21T11:30:33.029Z,67.20
2019-05-21T11:31:32.956Z,65.30
2019-05-21T11:32:32.912Z,71.80
2019-05-21T11:33:32.920Z,70.20
2019-05-21T11:34:32.841Z,66.30
2019-05-21T11:35:35.833Z,72.40
2019-05-21T11:36:32.759Z,69.70
2019-05-21T11:37:32.718Z,71.50
2019-05-21T11:38:39.946Z,64.30
2019-05-21T11:39:32.641Z,66.70
2019-05-21T11:40:32.599Z,67.70
2019-05-21T11:41:32.559Z,72.80
2019-05-21T11:42:32.511Z,73.80
2019-05-21T11:43:32.497Z,77.60
2019-05-21T11:44:32.443Z,78.40
2019-05-21T11:45:33.179Z,79.20
2019-05-21T11:46:32.359Z,74.60
2019-05-21T11:47:32.319Z,81.40
2019-05-21T11:48:32.302Z,76.20
2019-05-21T11:49:32.242Z,62.60
2019-05-21T11:50:32.211Z,67.30
2019-05-21T11:51:32.156Z,62.70
2019-05-21T11:52:32.109Z,66.10
2019-05-21T11:53:32.360Z,69.40
2019-05-21T11:54:32.068Z,62.40
2019-05-21T11:55:31.994Z,63.10
2019-05-21T11:56:31.953Z,63.00
2019-05-21T11:57:31.934Z,69.20
2019-05-21T11:58:31.910Z,73.60
2019-05-21T11:59:31.837Z,60.50
2019-05-21T12:00:31.807Z,63.40
2019-05-21T12:01:31.752Z,69.30
2019-05-21T12:02:31.737Z,66.30
2019-05-21T12:03:31.674Z,66.60
2019-05-21T12:04:31.631Z,62.50
2019-05-21T12:05:31.602Z,63.20
2019-05-21T12:06:31.553Z,64.10
2019-05-21T12:07:31.545Z,64.30
2019-05-21T12:08:31.483Z,64.00
2019-05-21T12:09:31.444Z,59.50
2019-05-21T12:10:31.388Z,64.30
2019-05-21T12:11:31.349Z,68.90
2019-05-21T12:12:31.315Z,62.90
2019-05-21T12:13:31.297Z,65.70
2019-05-21T12:14:31.225Z,64.60
2019-05-21T12:15:31.186Z,66.40
2019-05-21T12:16:31.147Z,72.60
2019-05-21T12:17:31.114Z,66.20
2019-05-21T12:18:31.103Z,72.50
2019-05-21T12:19:31.030Z,74.50
2019-05-21T12:20:36.783Z,80.70
2019-05-21T12:21:30.948Z,78.10
2019-05-21T12:22:30.907Z,67.40
2019-05-21T12:23:30.870Z,72.50
2019-05-21T12:24:30.850Z,73.10
2019-05-21T12:25:30.785Z,61.90
2019-05-21T12:26:30.753Z,63.20
2019-05-21T12:27:30.717Z,64.00
2019-05-21T12:28:30.672Z,61.60
2019-05-21T12:29:34.074Z,64.00
2019-05-21T12:30:30.617Z,64.90
2019-05-21T12:31:30.551Z,68.00
2019-05-21T12:32:30.534Z,67.70
2019-05-21T12:33:30.487Z,70.50
2019-05-21T12:34:30.426Z,65.30
2019-05-21T12:35:30.406Z,63.80
2019-05-21T12:36:30.352Z,64.20
2019-05-21T12:37:30.370Z,65.20
2019-05-21T12:38:30.267Z,63.70